createdAt,value
2023-04-18T00:01:40.872Z,101661.00
2023-04-18T00:04:08.919Z,101659.00
2023-04-18T00:06:38.439Z,101660.00
2023-04-18T00:09:05.118Z,101668.00
2023-04-18T00:11:31.703Z,101656.00
2023-04-18T00:13:59.377Z,101665.00
2023-04-18T00:16:27.292Z,101662.00
2023-04-18T00:18:54.232Z,101665.00
2023-04-18T00:21:23.176Z,101649.00
2023-04-18T00:23:49.797Z,101652.00
2023-04-18T00:26:16.319Z,101655.00
2023-04-18T00:28:47.160Z,101659.00
2023-04-18T00:31:13.775Z,101663.00
2023-04-18T00:33:40.320Z,101664.00
2023-04-18T00:36:07.051Z,101651.00
2023-04-18T00:38:33.847Z,101662.00
2023-04-18T00:41:00.490Z,101655.00
2023-04-18T00:43:27.174Z,101658.00
2023-04-18T00:45:54.025Z,101669.00
2023-04-18T00:48:20.600Z,101661.00
2023-04-18T00:50:47.100Z,101665.00
2023-04-18T00:53:13.619Z,101667.00
2023-04-18T00:55:40.597Z,101657.00
2023-04-18T00:58:08.191Z,101657.00
2023-04-18T01:00:34.788Z,101664.00
2023-04-18T01:03:01.460Z,101665.00
2023-04-18T01:05:28.252Z,101666.00
2023-04-18T01:08:00.781Z,101655.00
2023-04-18T01:10:27.786Z,101657.00
2023-04-18T01:13:13.996Z,101649.00
2023-04-18T01:15:45.093Z,101649.00
2023-04-18T01:18:13.058Z,101659.00
2023-04-18T01:20:41.439Z,101649.00
2023-04-18T01:23:10.273Z,101660.00
2023-04-18T01:25:37.262Z,101657.00
2023-04-18T01:28:04.700Z,101660.00
2023-04-18T01:30:31.187Z,101661.00
2023-04-18T01:32:58.411Z,101660.00
2023-04-18T01:35:26.912Z,101659.00
2023-04-18T01:37:56.231Z,101660.00
2023-04-18T01:40:24.292Z,101666.00
2023-04-18T01:42:51.206Z,101660.00
2023-04-18T01:45:19.337Z,101659.00
2023-04-18T01:47:46.706Z,101662.00
2023-04-18T01:50:13.789Z,101655.00
2023-04-18T01:52:42.535Z,101649.00
2023-04-18T01:55:09.537Z,101660.00
2023-04-18T01:57:38.892Z,101658.00
2023-04-18T02:00:06.876Z,101662.00
2023-04-18T02:02:42.701Z,101657.00
2023-04-18T02:05:09.501Z,101652.00
2023-04-18T02:07:38.534Z,101657.00
2023-04-18T02:10:05.537Z,101657.00
2023-04-18T02:12:32.159Z,101655.00
2023-04-18T02:14:59.566Z,101657.00
2023-04-18T02:17:26.209Z,101654.00
2023-04-18T02:19:54.363Z,101651.00
2023-04-18T02:22:21.046Z,101660.00
2023-04-18T02:24:47.564Z,101655.00
2023-04-18T02:27:15.119Z,101652.00
2023-04-18T02:29:41.623Z,101657.00
2023-04-18T02:32:08.983Z,101656.00
2023-04-18T02:34:36.474Z,101653.00
2023-04-18T02:37:03.660Z,101654.00
2023-04-18T02:39:31.728Z,101652.00
2023-04-18T02:41:58.727Z,101657.00
2023-04-18T02:44:25.517Z,101660.00
2023-04-18T02:46:52.053Z,101658.00
2023-04-18T02:49:18.625Z,101650.00
2023-04-18T02:51:45.280Z,101663.00
2023-04-18T02:54:12.061Z,101659.00
2023-04-18T02:56:57.500Z,101661.00
2023-04-18T02:59:46.071Z,101661.00
2023-04-18T03:02:28.797Z,101669.00
2023-04-18T03:05:00.581Z,101658.00
2023-04-18T03:07:27.334Z,101663.00
2023-04-18T03:09:54.296Z,101665.00
2023-04-18T03:12:29.051Z,101661.00
2023-04-18T03:14:55.680Z,101661.00
2023-04-18T03:17:22.496Z,101660.00
2023-04-18T03:19:49.772Z,101658.00
2023-04-18T03:22:19.328Z,101660.00
2023-04-18T03:24:52.760Z,101660.00
2023-04-18T03:27:20.591Z,101661.00
2023-04-18T03:29:47.771Z,101654.00
2023-04-18T03:32:14.833Z,101663.00
2023-04-18T03:34:41.554Z,101662.00
2023-04-18T03:37:08.676Z,101657.00
2023-04-18T03:39:40.910Z,101666.00
2023-04-18T03:42:07.764Z,101664.00
2023-04-18T03:44:35.258Z,101662.00
2023-04-18T03:47:03.524Z,101669.00
2023-04-18T03:49:31.429Z,101653.00
2023-04-18T03:51:58.324Z,101661.00
2023-04-18T03:54:24.851Z,101668.00
2023-04-18T03:56:51.445Z,101670.00
2023-04-18T03:59:21.220Z,101669.00
2023-04-18T04:01:50.215Z,101680.00
2023-04-18T04:04:18.197Z,101670.00
2023-04-18T04:06:45.390Z,101678.00
2023-04-18T04:09:12.030Z,101679.00
2023-04-18T04:11:39.708Z,101679.00
2023-04-18T04:14:08.746Z,101676.00
2023-04-18T04:16:40.428Z,101678.00
2023-04-18T04:19:07.407Z,101681.00
2023-04-18T04:21:40.646Z,101664.00
2023-04-18T04:24:11.072Z,101683.00
2023-04-18T04:26:43.212Z,101675.00
2023-04-18T04:29:15.031Z,101689.00
2023-04-18T04:31:42.906Z,101687.00
2023-04-18T04:34:09.549Z,101681.00
2023-04-18T04:36:36.196Z,101691.00
2023-04-18T04:39:05.185Z,101691.00
2023-04-18T04:41:41.172Z,101697.00
2023-04-18T04:44:09.414Z,101690.00
2023-04-18T04:46:39.432Z,101675.00
2023-04-18T04:49:12.062Z,101689.00
2023-04-18T04:51:39.985Z,101697.00
2023-04-18T04:54:06.568Z,101695.00
2023-04-18T04:56:33.171Z,101702.00
2023-04-18T04:59:00.860Z,101692.00
2023-04-18T05:01:35.447Z,101685.00
2023-04-18T05:04:02.354Z,101708.00
2023-04-18T05:06:29.078Z,101704.00
2023-04-18T05:08:57.414Z,101707.00
2023-04-18T05:11:24.069Z,101700.00
2023-04-18T05:13:50.643Z,101702.00
2023-04-18T05:16:17.532Z,101713.00
2023-04-18T05:18:44.096Z,101701.00
2023-04-18T05:21:10.561Z,101707.00
2023-04-18T05:23:37.277Z,101710.00
2023-04-18T05:26:04.957Z,101712.00
2023-04-18T05:28:31.668Z,101707.00
2023-04-18T05:31:01.370Z,101705.00
2023-04-18T05:33:28.997Z,101708.00
2023-04-18T05:35:58.342Z,101697.00
2023-04-18T05:38:24.981Z,101704.00
2023-04-18T05:40:51.589Z,101699.00
2023-04-18T05:43:19.405Z,101701.00
2023-04-18T05:45:46.358Z,101708.00
2023-04-18T05:48:13.238Z,101712.00
2023-04-18T05:50:40.465Z,101719.00
2023-04-18T05:53:06.985Z,101703.00
2023-04-18T05:55:34.343Z,101710.00
2023-04-18T05:58:01.039Z,101720.00
2023-04-18T06:00:28.246Z,101712.00
2023-04-18T06:02:55.225Z,101705.00
2023-04-18T06:05:22.102Z,101702.00
2023-04-18T06:07:48.834Z,101717.00
2023-04-18T06:10:15.781Z,101716.00
2023-04-18T06:12:42.424Z,101710.00
2023-04-18T06:15:09.859Z,101725.00
2023-04-18T06:17:36.471Z,101721.00
2023-04-18T06:20:04.832Z,101723.00
2023-04-18T06:22:31.488Z,101723.00
2023-04-18T06:24:58.070Z,101729.00
2023-04-18T06:27:31.648Z,101734.00
2023-04-18T06:29:58.806Z,101727.00
2023-04-18T06:32:25.616Z,101734.00
2023-04-18T06:34:53.025Z,101729.00
2023-04-18T06:37:19.847Z,101738.00
2023-04-18T06:39:46.394Z,101740.00
2023-04-18T06:42:12.964Z,101740.00
2023-04-18T06:44:44.372Z,101738.00
2023-04-18T06:47:11.222Z,101735.00
2023-04-18T06:49:37.834Z,101733.00
2023-04-18T06:52:04.485Z,101747.00
2023-04-18T06:54:30.993Z,101738.00
2023-04-18T06:56:57.596Z,101735.00
2023-04-18T06:59:24.110Z,101733.00
2023-04-18T07:01:51.037Z,101742.00
2023-04-18T07:04:17.818Z,101740.00
2023-04-18T07:06:44.718Z,101724.00
2023-04-18T07:09:11.462Z,101742.00
2023-04-18T07:11:39.102Z,101751.00
2023-04-18T07:14:05.588Z,101747.00
2023-04-18T07:16:32.123Z,101753.00
2023-04-18T07:18:58.677Z,101750.00
2023-04-18T07:21:25.573Z,101755.00
2023-04-18T07:23:52.171Z,101744.00
2023-04-18T07:26:18.984Z,101748.00
2023-04-18T07:28:45.524Z,101745.00
2023-04-18T07:31:14.280Z,101754.00
2023-04-18T07:33:40.996Z,101745.00
2023-04-18T07:36:07.730Z,101752.00
2023-04-18T07:38:35.418Z,101752.00
2023-04-18T07:41:02.511Z,101749.00
2023-04-18T07:43:29.051Z,101754.00
2023-04-18T07:45:55.805Z,101752.00
2023-04-18T07:48:22.606Z,101750.00
2023-04-18T07:50:49.419Z,101761.00
2023-04-18T07:53:16.038Z,101752.00
2023-04-18T07:55:43.301Z,101752.00
2023-04-18T07:58:10.091Z,101747.00
2023-04-18T08:00:39.081Z,101747.00
2023-04-18T08:03:07.505Z,101747.00
2023-04-18T08:05:34.374Z,101750.00
2023-04-18T08:08:00.975Z,101748.00
2023-04-18T08:10:27.646Z,101755.00
2023-04-18T08:12:54.216Z,101758.00
2023-04-18T08:15:20.854Z,101757.00
2023-04-18T08:17:48.983Z,101765.00
2023-04-18T08:20:15.739Z,101766.00
2023-04-18T08:22:57.616Z,101764.00
2023-04-18T08:25:29.022Z,101770.00
2023-04-18T08:27:55.863Z,101762.00
2023-04-18T08:30:22.460Z,101757.00
2023-04-18T08:32:49.699Z,101757.00
2023-04-18T08:35:16.468Z,101762.00
2023-04-18T08:37:43.467Z,101748.00
2023-04-18T08:40:10.235Z,101752.00
2023-04-18T08:42:38.440Z,101747.00
2023-04-18T08:45:06.769Z,101757.00
2023-04-18T08:47:35.401Z,101746.00
2023-04-18T08:50:02.138Z,101750.00
2023-04-18T08:52:30.868Z,101757.00
2023-04-18T08:54:57.415Z,101754.00
2023-04-18T08:57:27.429Z,101749.00
2023-04-18T08:59:55.326Z,101756.00
2023-04-18T09:02:23.237Z,101755.00
2023-04-18T09:04:52.937Z,101732.00
2023-04-18T09:07:20.635Z,101756.00
2023-04-18T09:09:52.553Z,101757.00
2023-04-18T09:12:24.043Z,101754.00
2023-04-18T09:14:54.094Z,101759.00
2023-04-18T09:17:34.253Z,101749.00
2023-04-18T09:20:06.133Z,101760.00
2023-04-18T09:22:50.422Z,101760.00
2023-04-18T09:25:38.417Z,101762.00
2023-04-18T09:28:29.795Z,101757.00
2023-04-18T09:30:58.187Z,101757.00
2023-04-18T09:33:29.581Z,101757.00
2023-04-18T09:35:57.046Z,101749.00
2023-04-18T09:38:40.032Z,101756.00
2023-04-18T09:41:10.774Z,101760.00
2023-04-18T09:43:38.720Z,101759.00
2023-04-18T09:46:05.677Z,101766.00
2023-04-18T09:48:32.305Z,101754.00
2023-04-18T09:51:00.144Z,101764.00
2023-04-18T09:53:26.919Z,101757.00
2023-04-18T09:55:56.115Z,101761.00
2023-04-18T09:58:25.861Z,101760.00
2023-04-18T10:00:53.958Z,101763.00
2023-04-18T10:03:21.355Z,101748.00
2023-04-18T10:05:48.401Z,101751.00
2023-04-18T10:08:16.071Z,101742.00
2023-04-18T10:10:43.567Z,101748.00
2023-04-18T10:13:11.900Z,101758.00
2023-04-18T10:15:38.745Z,101754.00
2023-04-18T10:18:14.988Z,101744.00
2023-04-18T10:20:41.870Z,101752.00
2023-04-18T10:23:36.459Z,101755.00
2023-04-18T10:26:04.734Z,101746.00
2023-04-18T10:28:59.378Z,101736.00
2023-04-18T10:31:27.811Z,101749.00
2023-04-18T10:36:28.677Z,101743.00
2023-04-18T10:38:56.262Z,101749.00
2023-04-18T10:41:26.727Z,101757.00
2023-04-18T10:44:09.123Z,101745.00
2023-04-18T10:46:37.433Z,101740.00
2023-04-18T10:49:22.366Z,101746.00
2023-04-18T10:51:52.441Z,101746.00
2023-04-18T10:54:22.552Z,101754.00
2023-04-18T10:56:56.840Z,101748.00
2023-04-18T10:59:25.037Z,101759.00
2023-04-18T11:01:57.127Z,101745.00
2023-04-18T11:04:25.560Z,101746.00
2023-04-18T11:06:58.381Z,101751.00
2023-04-18T11:09:25.129Z,101753.00
2023-04-18T11:12:09.043Z,101746.00
2023-04-18T11:14:49.539Z,101748.00
2023-04-18T11:17:26.446Z,101746.00
2023-04-18T11:20:01.328Z,101746.00
2023-04-18T11:22:28.142Z,101749.00
2023-04-18T11:25:01.608Z,101744.00
2023-04-18T11:27:29.543Z,101748.00
2023-04-18T11:29:57.473Z,101744.00
2023-04-18T11:32:24.387Z,101736.00
2023-04-18T11:34:54.572Z,101739.00
2023-04-18T11:37:21.727Z,101727.00
2023-04-18T11:39:48.400Z,101731.00
2023-04-18T11:42:15.009Z,101734.00
2023-04-18T11:44:45.764Z,101740.00
2023-04-18T11:47:28.953Z,101729.00
2023-04-18T11:50:03.308Z,101732.00
2023-04-18T11:52:31.358Z,101737.00
2023-04-18T11:55:17.286Z,101740.00
2023-04-18T11:57:55.926Z,101726.00
2023-04-18T12:00:39.281Z,101732.00
2023-04-18T12:03:13.308Z,101740.00
2023-04-18T12:05:40.944Z,101732.00
2023-04-18T12:08:09.807Z,101731.00
2023-04-18T12:10:36.535Z,101733.00
2023-04-18T12:13:07.654Z,101733.00
2023-04-18T12:15:38.659Z,101740.00
2023-04-18T12:18:08.130Z,101742.00
2023-04-18T12:20:36.814Z,101738.00
2023-04-18T12:23:03.784Z,101731.00
2023-04-18T12:25:30.686Z,101744.00
2023-04-18T12:28:17.519Z,101733.00
2023-04-18T12:30:44.080Z,101735.00
2023-04-18T12:33:11.268Z,101728.00
2023-04-18T12:35:37.875Z,101719.00
2023-04-18T12:38:04.997Z,101733.00
2023-04-18T12:40:31.748Z,101721.00
2023-04-18T12:42:58.441Z,101731.00
2023-04-18T12:45:25.323Z,101734.00
2023-04-18T12:47:52.788Z,101724.00
2023-04-18T12:50:25.169Z,101726.00
2023-04-18T12:52:53.052Z,101722.00
2023-04-18T12:55:20.418Z,101719.00
2023-04-18T12:57:47.017Z,101722.00
2023-04-18T13:00:14.129Z,101721.00
2023-04-18T13:02:44.142Z,101705.00
2023-04-18T13:05:12.363Z,101716.00
2023-04-18T13:07:40.555Z,101710.00
2023-04-18T13:10:12.440Z,101708.00
2023-04-18T13:12:40.609Z,101707.00
2023-04-18T13:15:08.679Z,101713.00
2023-04-18T13:17:38.622Z,101704.00
2023-04-18T13:20:07.093Z,101702.00
2023-04-18T13:22:33.961Z,101702.00
2023-04-18T13:25:00.500Z,101698.00
2023-04-18T13:27:27.133Z,101696.00
2023-04-18T13:29:53.818Z,101687.00
2023-04-18T13:32:20.447Z,101701.00
2023-04-18T13:34:48.206Z,101697.00
2023-04-18T13:37:15.120Z,101700.00
2023-04-18T13:39:41.900Z,101696.00
2023-04-18T13:42:08.670Z,101686.00
2023-04-18T13:44:36.493Z,101691.00
2023-04-18T13:47:04.902Z,101696.00
2023-04-18T13:49:35.348Z,101686.00
2023-04-18T13:52:02.581Z,101684.00
2023-04-18T13:54:31.446Z,101692.00
2023-04-18T13:56:59.530Z,101686.00
2023-04-18T13:59:26.898Z,101670.00
2023-04-18T14:01:54.304Z,101685.00
2023-04-18T14:04:22.316Z,101682.00
2023-04-18T14:06:49.568Z,101679.00
2023-04-18T14:09:16.827Z,101680.00
2023-04-18T14:11:44.186Z,101682.00
2023-04-18T14:14:10.839Z,101679.00
2023-04-18T14:16:37.386Z,101677.00
2023-04-18T14:19:03.893Z,101675.00
2023-04-18T14:21:31.201Z,101673.00
2023-04-18T14:23:57.783Z,101674.00
2023-04-18T14:26:24.602Z,101673.00
2023-04-18T14:28:51.299Z,101663.00
2023-04-18T14:31:17.819Z,101677.00
2023-04-18T14:33:44.724Z,101669.00
2023-04-18T14:36:11.357Z,101666.00
2023-04-18T14:38:37.951Z,101657.00
2023-04-18T14:41:05.590Z,101654.00
2023-04-18T14:43:32.380Z,101660.00
2023-04-18T14:45:59.779Z,101666.00
2023-04-18T14:48:27.376Z,101665.00
2023-04-18T14:51:02.382Z,101668.00
2023-04-18T14:53:29.332Z,101661.00
2023-04-18T14:55:56.304Z,101655.00
2023-04-18T14:58:22.828Z,101653.00
2023-04-18T15:00:49.408Z,101652.00
2023-04-18T15:03:18.841Z,101653.00
2023-04-18T15:05:49.135Z,101650.00
2023-04-18T15:08:16.197Z,101654.00
2023-04-18T15:10:43.086Z,101652.00
2023-04-18T15:13:10.962Z,101653.00
2023-04-18T15:15:39.614Z,101647.00
2023-04-18T15:18:07.281Z,101647.00
2023-04-18T15:20:35.977Z,101645.00
2023-04-18T15:23:02.981Z,101638.00
2023-04-18T15:25:30.538Z,101642.00
2023-04-18T15:27:58.310Z,101632.00
2023-04-18T15:30:25.373Z,101647.00
2023-04-18T15:32:52.205Z,101641.00
2023-04-18T15:35:18.914Z,101640.00
2023-04-18T15:37:45.662Z,101637.00
2023-04-18T15:40:16.072Z,101640.00
2023-04-18T15:42:43.609Z,101644.00
2023-04-18T15:45:11.529Z,101638.00
2023-04-18T15:47:38.821Z,101641.00
2023-04-18T15:50:06.137Z,101640.00
2023-04-18T15:52:32.730Z,101638.00
2023-04-18T15:55:00.257Z,101627.00
2023-04-18T15:57:29.341Z,101647.00
2023-04-18T15:59:56.223Z,101641.00
2023-04-18T16:02:22.853Z,101639.00
2023-04-18T16:04:49.587Z,101651.00
2023-04-18T16:07:16.618Z,101640.00
2023-04-18T16:09:43.142Z,101638.00
2023-04-18T16:12:09.723Z,101639.00
2023-04-18T16:14:36.241Z,101646.00
2023-04-18T16:17:03.064Z,101651.00
2023-04-18T16:19:29.658Z,101647.00
2023-04-18T16:21:56.290Z,101655.00
2023-04-18T16:24:22.853Z,101650.00
2023-04-18T16:26:49.534Z,101642.00
2023-04-18T16:29:16.012Z,101650.00
2023-04-18T16:31:43.115Z,101649.00
2023-04-18T16:34:09.822Z,101647.00
2023-04-18T16:36:36.373Z,101653.00
2023-04-18T16:39:04.536Z,101636.00
2023-04-18T16:41:31.166Z,101656.00
2023-04-18T16:43:58.178Z,101652.00
2023-04-18T16:46:25.312Z,101636.00
2023-04-18T16:48:52.612Z,101649.00
2023-04-18T16:51:19.264Z,101641.00
2023-04-18T16:53:46.840Z,101646.00
2023-04-18T16:56:13.432Z,101656.00
2023-04-18T16:58:40.800Z,101653.00
2023-04-18T17:01:08.175Z,101650.00
2023-04-18T17:03:34.862Z,101657.00
2023-04-18T17:06:01.664Z,101654.00
2023-04-18T17:08:32.926Z,101654.00
2023-04-18T17:10:59.622Z,101646.00
2023-04-18T17:13:27.252Z,101655.00
2023-04-18T17:15:54.146Z,101650.00
2023-04-18T17:18:20.740Z,101656.00
2023-04-18T17:20:47.575Z,101664.00
2023-04-18T17:23:14.141Z,101662.00
2023-04-18T17:25:40.721Z,101671.00
2023-04-18T17:28:07.265Z,101661.00
2023-04-18T17:30:33.837Z,101674.00
2023-04-18T17:33:00.710Z,101669.00
2023-04-18T17:35:27.294Z,101674.00
2023-04-18T17:37:53.791Z,101673.00
2023-04-18T17:40:20.392Z,101673.00
2023-04-18T17:42:46.966Z,101671.00
2023-04-18T17:45:13.509Z,101684.00
2023-04-18T17:47:40.745Z,101671.00
2023-04-18T17:50:07.981Z,101674.00
2023-04-18T17:52:34.487Z,101674.00
2023-04-18T17:55:01.565Z,101669.00
2023-04-18T17:57:30.395Z,101682.00
2023-04-18T17:59:56.996Z,101677.00
2023-04-18T18:02:23.862Z,101677.00
2023-04-18T18:04:51.435Z,101691.00
2023-04-18T18:07:18.321Z,101700.00
2023-04-18T18:09:45.601Z,101699.00
2023-04-18T18:12:12.319Z,101700.00
2023-04-18T18:14:40.445Z,101700.00
2023-04-18T18:17:07.036Z,101698.00
2023-04-18T18:19:37.489Z,101703.00
2023-04-18T18:22:04.169Z,101707.00
2023-04-18T18:24:30.819Z,101701.00
2023-04-18T18:26:58.842Z,101714.00
2023-04-18T18:29:25.487Z,101723.00
2023-04-18T18:31:52.098Z,101717.00
2023-04-18T18:34:19.863Z,101725.00
2023-04-18T18:36:46.339Z,101719.00
2023-04-18T18:39:14.591Z,101715.00
2023-04-18T18:41:41.381Z,101725.00
2023-04-18T18:44:08.047Z,101726.00
2023-04-18T18:46:35.338Z,101725.00
2023-04-18T18:49:01.891Z,101718.00
2023-04-18T18:51:29.128Z,101712.00
2023-04-18T18:53:57.056Z,101724.00
2023-04-18T18:56:23.607Z,101733.00
2023-04-18T18:58:50.208Z,101730.00
2023-04-18T19:01:16.851Z,101737.00
2023-04-18T19:03:43.624Z,101735.00
2023-04-18T19:06:10.271Z,101741.00
2023-04-18T19:08:36.764Z,101732.00
2023-04-18T19:11:03.824Z,101742.00
2023-04-18T19:13:30.469Z,101749.00
2023-04-18T19:15:57.190Z,101747.00
2023-04-18T19:18:23.981Z,101746.00
2023-04-18T19:20:50.578Z,101744.00
2023-04-18T19:23:17.596Z,101739.00
2023-04-18T19:25:44.885Z,101742.00
2023-04-18T19:28:12.755Z,101745.00
2023-04-18T19:30:39.327Z,101737.00
2023-04-18T19:33:05.950Z,101744.00
2023-04-18T19:35:32.559Z,101732.00
2023-04-18T19:38:01.616Z,101747.00
2023-04-18T19:40:28.879Z,101748.00
2023-04-18T19:42:55.478Z,101743.00
2023-04-18T19:45:22.032Z,101746.00
2023-04-18T19:47:48.703Z,101747.00
2023-04-18T19:50:15.338Z,101741.00
2023-04-18T19:52:41.954Z,101745.00
2023-04-18T19:55:08.963Z,101747.00
2023-04-18T19:57:39.567Z,101741.00
2023-04-18T20:00:07.702Z,101733.00
2023-04-18T20:02:40.367Z,101732.00
2023-04-18T20:05:08.432Z,101733.00
2023-04-18T20:07:35.882Z,101741.00
2023-04-18T20:10:03.106Z,101743.00
2023-04-18T20:12:29.926Z,101748.00
2023-04-18T20:14:58.501Z,101733.00
2023-04-18T20:17:30.163Z,101740.00
2023-04-18T20:19:57.108Z,101734.00
2023-04-18T20:22:26.902Z,101726.00
2023-04-18T20:24:57.006Z,101733.00
2023-04-18T20:27:23.761Z,101734.00
2023-04-18T20:29:50.283Z,101729.00
2023-04-18T20:32:16.898Z,101724.00
2023-04-18T20:34:43.522Z,101724.00
2023-04-18T20:37:10.157Z,101735.00
2023-04-18T20:39:38.140Z,101729.00
2023-04-18T20:42:04.926Z,101730.00
2023-04-18T20:44:34.246Z,101731.00
2023-04-18T20:47:01.116Z,101738.00
2023-04-18T20:49:29.423Z,101740.00
2023-04-18T20:51:56.032Z,101737.00
2023-04-18T20:54:22.823Z,101735.00
2023-04-18T20:56:49.461Z,101739.00
2023-04-18T20:59:15.979Z,101735.00
2023-04-18T21:01:42.598Z,101747.00
2023-04-18T21:04:09.405Z,101745.00
2023-04-18T21:06:36.709Z,101745.00
2023-04-18T21:09:03.781Z,101742.00
2023-04-18T21:11:30.344Z,101738.00
2023-04-18T21:13:56.815Z,101734.00
2023-04-18T21:16:24.107Z,101734.00
2023-04-18T21:18:50.705Z,101748.00
2023-04-18T21:21:17.667Z,101745.00
2023-04-18T21:23:44.412Z,101740.00
2023-04-18T21:26:12.593Z,101750.00
2023-04-18T21:28:56.062Z,101741.00
2023-04-18T21:31:23.169Z,101737.00
2023-04-18T21:33:54.488Z,101745.00
2023-04-18T21:36:21.402Z,101744.00
2023-04-18T21:38:47.933Z,101741.00
2023-04-18T21:41:16.748Z,101749.00
2023-04-18T21:43:43.811Z,101738.00
2023-04-18T21:46:13.967Z,101740.00
2023-04-18T21:48:41.736Z,101746.00
2023-04-18T21:51:09.362Z,101737.00
2023-04-18T21:53:37.495Z,101708.00
2023-04-18T21:56:04.329Z,101735.00
2023-04-18T21:58:30.827Z,101735.00
2023-04-18T22:00:57.455Z,101727.00
2023-04-18T22:03:26.339Z,101736.00
2023-04-18T22:05:53.235Z,101743.00
2023-04-18T22:08:20.248Z,101733.00
2023-04-18T22:10:49.640Z,101733.00
2023-04-18T22:13:16.604Z,101732.00
2023-04-18T22:15:43.148Z,101725.00
2023-04-18T22:18:09.713Z,101722.00
2023-04-18T22:20:37.282Z,101729.00
2023-04-18T22:23:04.312Z,101722.00
2023-04-18T22:25:30.781Z,101713.00
2023-04-18T22:27:57.313Z,101706.00
2023-04-18T22:30:23.853Z,101718.00
2023-04-18T22:32:50.436Z,101720.00
2023-04-18T22:35:17.244Z,101697.00
2023-04-18T22:37:43.787Z,101711.00
2023-04-18T22:40:11.280Z,101697.00
2023-04-18T22:42:39.360Z,101703.00
2023-04-18T22:45:06.864Z,101701.00
2023-04-18T22:47:33.647Z,101696.00
2023-04-18T22:50:00.635Z,101692.00
2023-04-18T22:52:27.852Z,101681.00
2023-04-18T22:54:54.737Z,101682.00
2023-04-18T22:57:21.694Z,101688.00
2023-04-18T22:59:48.172Z,101696.00
2023-04-18T23:02:14.858Z,101685.00
2023-04-18T23:04:42.283Z,101676.00
2023-04-18T23:07:11.755Z,101686.00
2023-04-18T23:09:38.316Z,101679.00
2023-04-18T23:12:05.185Z,101681.00
2023-04-18T23:14:32.084Z,101686.00
2023-04-18T23:17:01.529Z,101679.00
2023-04-18T23:19:28.134Z,101680.00
2023-04-18T23:21:54.670Z,101663.00
2023-04-18T23:24:23.061Z,101679.00
2023-04-18T23:26:49.571Z,101685.00
2023-04-18T23:29:16.092Z,101682.00
2023-04-18T23:31:42.715Z,101670.00
2023-04-18T23:34:10.181Z,101678.00
2023-04-18T23:36:37.236Z,101673.00
2023-04-18T23:39:04.119Z,101664.00
2023-04-18T23:41:30.690Z,101662.00
2023-04-18T23:43:57.260Z,101665.00
2023-04-18T23:46:23.757Z,101666.00
2023-04-18T23:48:50.328Z,101612.00
2023-04-18T23:51:16.858Z,101657.00
2023-04-18T23:53:43.388Z,101668.00
2023-04-18T23:56:09.976Z,101665.00
2023-04-18T23:58:36.478Z,101659.00
